Time;durP1;ratioP1;P1;durP2;ratioP2;P2;SDS_P1;SDS_P2;PMS_P1;PMS_P2;Temp;Humidity;BMP_temperature;BMP_pressure;BME280_temperature;BME280_humidity;BME280_pressure;Samples;Min_cycle;Max_cycle;Signal;HPM_P1;HPM_P2
2021/05/19 00:01:57;;;;;;;1.50;1.20;;;;;;;;;;5031284;28;20057;-73
2021/05/19 00:04:24;;;;;;;1.88;1.50;;;;;;;;;;5031448;28;20045;-73
2021/05/19 00:06:50;;;;;;;1.58;1.48;;;;;;;;;;5030882;28;20064;-73
2021/05/19 00:09:17;;;;;;;2.10;1.50;;;;;;;;;;5031432;28;20046;-73
2021/05/19 00:11:45;;;;;;;3.28;1.20;;;;;;;;;;5022812;28;20081;-73
2021/05/19 00:14:15;;;;;;;1.92;1.80;;;;;;;;;;5026215;28;20050;-73
2021/05/19 00:16:43;;;;;;;2.38;1.70;;;;;;;;;;5010002;28;20104;-73
2021/05/19 00:19:10;;;;;;;1.95;1.70;;;;;;;;;;5010649;28;20054;-73
2021/05/19 00:21:37;;;;;;;1.65;1.55;;;;;;;;;;5014800;28;20096;-73
2021/05/19 00:24:07;;;;;;;2.55;1.42;;;;;;;;;;5036493;28;20056;-73
2021/05/19 00:26:34;;;;;;;1.95;1.38;;;;;;;;;;5017511;28;20542;-73
2021/05/19 00:29:01;;;;;;;2.10;1.50;;;;;;;;;;5016225;28;20080;-73
2021/05/19 00:31:33;;;;;;;3.65;1.85;;;;;;;;;;5049700;28;20085;-73
2021/05/19 00:33:59;;;;;;;2.03;1.75;;;;;;;;;;5017648;28;20061;-73
2021/05/19 00:36:26;;;;;;;1.73;1.55;;;;;;;;;;5030195;28;20405;-73
2021/05/19 00:38:54;;;;;;;2.47;1.67;;;;;;;;;;5033849;28;20107;-73
2021/05/19 00:41:20;;;;;;;2.05;1.70;;;;;;;;;;5030319;28;20096;-73
2021/05/19 00:43:47;;;;;;;1.98;1.63;;;;;;;;;;5015084;28;20140;-73
2021/05/19 00:46:14;;;;;;;1.60;1.50;;;;;;;;;;5014749;28;20566;-73
2021/05/19 00:48:40;;;;;;;2.67;2.00;;;;;;;;;;5013739;28;20103;-73
2021/05/19 00:51:07;;;;;;;2.75;1.85;;;;;;;;;;5023435;28;20049;-73
2021/05/19 00:53:34;;;;;;;3.35;1.92;;;;;;;;;;5032841;28;20108;-73
2021/05/19 00:56:01;;;;;;;2.45;1.73;;;;;;;;;;5041502;28;20053;-73
2021/05/19 00:58:28;;;;;;;3.25;1.65;;;;;;;;;;5013678;28;20081;-73
2021/05/19 01:00:54;;;;;;;2.50;1.88;;;;;;;;;;5029773;28;20057;-73
2021/05/19 01:03:21;;;;;;;3.63;1.60;;;;;;;;;;5014559;28;20049;-73
2021/05/19 01:05:59;;;;;;;1.75;1.65;;;;;;;;;;5014358;28;20058;-73
2021/05/19 01:11:12;;;;;;;2.30;1.70;;;;;;;;;;5014808;28;20123;-73
2021/05/19 01:13:41;;;;;;;4.75;1.80;;;;;;;;;;5014490;28;20089;-73
2021/05/19 01:16:08;;;;;;;1.50;1.40;;;;;;;;;;4997097;28;20053;-73
2021/05/19 01:18:36;;;;;;;1.77;1.67;;;;;;;;;;5014524;28;20053;-73
2021/05/19 01:21:03;;;;;;;1.90;1.45;;;;;;;;;;5029536;28;20120;-73
2021/05/19 01:23:30;;;;;;;1.73;1.58;;;;;;;;;;5014523;28;20107;-72
2021/05/19 01:25:58;;;;;;;1.92;1.50;;;;;;;;;;5032551;28;20103;-72
2021/05/19 01:28:25;;;;;;;6.03;2.10;;;;;;;;;;5023392;28;20096;-72
2021/05/19 01:30:51;;;;;;;2.45;1.42;;;;;;;;;;5014067;28;20429;-73
2021/05/19 01:33:18;;;;;;;3.05;1.67;;;;;;;;;;5014123;28;20555;-73
2021/05/19 01:35:45;;;;;;;3.50;1.98;;;;;;;;;;5045509;28;20050;-72
2021/05/19 01:38:13;;;;;;;2.97;1.92;;;;;;;;;;5035632;28;20046;-73
2021/05/19 01:40:41;;;;;;;3.17;1.88;;;;;;;;;;5012866;28;20052;-74
2021/05/19 01:43:08;;;;;;;1.95;1.75;;;;;;;;;;5021410;28;20056;-73
2021/05/19 01:45:34;;;;;;;3.60;1.60;;;;;;;;;;5032779;28;20069;-73
2021/05/19 01:48:01;;;;;;;1.80;1.55;;;;;;;;;;5033617;28;20049;-73
2021/05/19 01:50:30;;;;;;;3.40;1.95;;;;;;;;;;5033805;28;20496;-73
2021/05/19 01:52:59;;;;;;;2.47;1.55;;;;;;;;;;5016111;28;20085;-73
2021/05/19 01:55:26;;;;;;;2.03;1.45;;;;;;;;;;5023977;28;20092;-73
2021/05/19 01:57:53;;;;;;;3.15;1.80;;;;;;;;;;5032171;28;20099;-73
2021/05/19 02:00:25;;;;;;;2.20;2.00;;;;;;;;;;5048469;28;20131;-73
2021/05/19 02:03:09;;;;;;;2.10;1.70;;;;;;;;;;5032274;28;20049;-73
2021/05/19 02:05:36;;;;;;;2.55;2.35;;;;;;;;;;5033118;28;20100;-73
2021/05/19 02:08:07;;;;;;;1.88;1.60;;;;;;;;;;5032623;28;20045;-73
2021/05/19 02:10:36;;;;;;;2.30;2.10;;;;;;;;;;5033367;28;20050;-74
2021/05/19 02:13:05;;;;;;;4.60;1.60;;;;;;;;;;5033057;28;20054;-73
2021/05/19 02:15:32;;;;;;;4.90;2.20;;;;;;;;;;5022269;28;20559;-73
2021/05/19 02:18:00;;;;;;;1.98;1.80;;;;;;;;;;5021737;28;20045;-74
2021/05/19 02:20:27;;;;;;;2.63;1.83;;;;;;;;;;5031921;28;20550;-73
2021/05/19 02:22:54;;;;;;;2.50;1.73;;;;;;;;;;5039905;28;20088;-73
2021/05/19 02:25:21;;;;;;;2.25;1.88;;;;;;;;;;5012765;28;20468;-74
2021/05/19 02:27:49;;;;;;;2.70;1.67;;;;;;;;;;5013017;28;20089;-74
2021/05/19 02:30:16;;;;;;;2.92;1.63;;;;;;;;;;5012072;28;20054;-74
2021/05/19 02:32:43;;;;;;;2.03;1.65;;;;;;;;;;5030849;28;20103;-74
2021/05/19 02:35:10;;;;;;;1.92;1.48;;;;;;;;;;5031637;28;20111;-73
2021/05/19 02:37:37;;;;;;;3.42;2.00;;;;;;;;;;5044596;22;20472;-69
2021/05/19 02:40:05;;;;;;;3.55;2.03;;;;;;;;;;4995813;28;20479;-71
2021/05/19 02:42:32;;;;;;;1.95;1.75;;;;;;;;;;5017747;28;20574;-72
2021/05/19 02:44:59;;;;;;;2.50;1.67;;;;;;;;;;5031384;28;20126;-72
2021/05/19 02:47:25;;;;;;;3.00;1.73;;;;;;;;;;5032421;28;20573;-72
2021/05/19 02:49:52;;;;;;;2.85;1.90;;;;;;;;;;5031512;28;20103;-72
2021/05/19 02:52:18;;;;;;;2.25;1.63;;;;;;;;;;5015185;28;20053;-72
2021/05/19 02:54:45;;;;;;;3.15;1.88;;;;;;;;;;5032684;28;20072;-72
2021/05/19 02:57:12;;;;;;;3.53;2.00;;;;;;;;;;5031056;28;20111;-72
2021/05/19 02:59:39;;;;;;;1.90;1.80;;;;;;;;;;5032524;28;20466;-72
2021/05/19 03:02:08;;;;;;;3.92;2.17;;;;;;;;;;5031301;28;20056;-72
2021/05/19 03:04:35;;;;;;;3.90;2.50;;;;;;;;;;5031233;28;20100;-72
2021/05/19 03:07:03;;;;;;;2.00;1.65;;;;;;;;;;5030876;28;20049;-72
2021/05/19 03:09:29;;;;;;;3.33;1.60;;;;;;;;;;5032340;28;20499;-71
2021/05/19 03:11:56;;;;;;;4.13;2.25;;;;;;;;;;5030975;28;20053;-72
2021/05/19 03:14:23;;;;;;;2.22;1.80;;;;;;;;;;5031329;28;20107;-72
2021/05/19 03:16:49;;;;;;;2.97;1.80;;;;;;;;;;5032068;28;20045;-72
2021/05/19 03:19:16;;;;;;;6.60;1.75;;;;;;;;;;5032228;28;20053;-72
2021/05/19 03:21:43;;;;;;;2.53;1.83;;;;;;;;;;5030736;28;20095;-72
2021/05/19 03:24:09;;;;;;;2.55;2.35;;;;;;;;;;5032301;28;20049;-72
2021/05/19 03:26:36;;;;;;;3.05;2.15;;;;;;;;;;5030621;28;20444;-72
2021/05/19 03:29:03;;;;;;;3.00;1.90;;;;;;;;;;5030800;28;20103;-72
2021/05/19 03:31:29;;;;;;;3.72;2.00;;;;;;;;;;5014509;28;20049;-72
2021/05/19 03:33:56;;;;;;;7.18;3.45;;;;;;;;;;5031848;28;20061;-72
2021/05/19 03:36:29;;;;;;;2.35;1.98;;;;;;;;;;5034153;28;20095;-72
2021/05/19 03:38:56;;;;;;;2.67;2.15;;;;;;;;;;5032822;28;20053;-72
2021/05/19 03:41:22;;;;;;;2.55;1.83;;;;;;;;;;5030624;28;20088;-72
2021/05/19 03:43:49;;;;;;;3.05;2.28;;;;;;;;;;5031469;28;20053;-72
2021/05/19 03:46:16;;;;;;;2.55;1.73;;;;;;;;;;5031575;28;20562;-72
2021/05/19 03:48:43;;;;;;;2.60;2.15;;;;;;;;;;5014235;28;20115;-72
2021/05/19 03:51:09;;;;;;;3.00;1.80;;;;;;;;;;5030673;28;20189;-72
2021/05/19 03:53:36;;;;;;;2.83;1.75;;;;;;;;;;5031884;28;20103;-72
2021/05/19 03:56:03;;;;;;;3.17;2.00;;;;;;;;;;5032451;28;20053;-72
2021/05/19 03:58:30;;;;;;;2.33;2.00;;;;;;;;;;5034519;28;20103;-72
2021/05/19 04:00:56;;;;;;;6.80;2.03;;;;;;;;;;5035789;28;20053;-72
2021/05/19 04:03:23;;;;;;;2.75;1.73;;;;;;;;;;5035867;28;20470;-72
2021/05/19 04:05:50;;;;;;;3.13;2.10;;;;;;;;;;5035674;28;20049;-72
2021/05/19 04:08:16;;;;;;;2.15;1.95;;;;;;;;;;5034543;28;20056;-72
2021/05/19 04:10:43;;;;;;;3.53;2.40;;;;;;;;;;5034149;28;20045;-70
2021/05/19 04:13:09;;;;;;;3.28;2.25;;;;;;;;;;5034524;28;20053;-70
2021/05/19 04:15:36;;;;;;;3.65;2.03;;;;;;;;;;5034044;28;20053;-70
2021/05/19 04:18:03;;;;;;;2.50;1.90;;;;;;;;;;5028795;28;20057;-70
2021/05/19 04:20:35;;;;;;;2.92;2.40;;;;;;;;;;5015814;28;20053;-70
2021/05/19 04:23:02;;;;;;;4.38;1.83;;;;;;;;;;5015551;28;20129;-70
2021/05/19 04:25:29;;;;;;;3.75;2.03;;;;;;;;;;5014404;28;20096;-70
2021/05/19 04:27:56;;;;;;;2.40;2.20;;;;;;;;;;5015428;28;20046;-70
2021/05/19 04:30:23;;;;;;;7.15;2.50;;;;;;;;;;5015315;28;20504;-70
2021/05/19 04:32:53;;;;;;;2.35;1.90;;;;;;;;;;4982783;28;20050;-70
2021/05/19 04:35:20;;;;;;;2.22;1.95;;;;;;;;;;5015455;28;20056;-70
2021/05/19 04:37:46;;;;;;;2.47;2.00;;;;;;;;;;4997724;28;20042;-70
2021/05/19 04:40:13;;;;;;;2.90;2.25;;;;;;;;;;5015688;28;20132;-70
2021/05/19 04:42:40;;;;;;;2.83;2.28;;;;;;;;;;5015727;28;20455;-70
2021/05/19 04:45:07;;;;;;;2.63;2.30;;;;;;;;;;5014186;28;20108;-70
2021/05/19 04:47:34;;;;;;;3.42;2.20;;;;;;;;;;5013845;28;20140;-70
2021/05/19 04:50:00;;;;;;;3.15;2.20;;;;;;;;;;5013978;28;20053;-70
2021/05/19 04:52:27;;;;;;;3.95;2.42;;;;;;;;;;5014097;28;20488;-70
2021/05/19 04:54:53;;;;;;;2.78;2.33;;;;;;;;;;5015171;28;20050;-70
2021/05/19 04:57:20;;;;;;;3.28;2.45;;;;;;;;;;5013872;28;20046;-71
2021/05/19 04:59:47;;;;;;;3.22;2.58;;;;;;;;;;5014967;28;20100;-70
2021/05/19 05:02:13;;;;;;;3.33;2.45;;;;;;;;;;5015342;28;20409;-71
2021/05/19 05:04:40;;;;;;;9.07;3.10;;;;;;;;;;5013694;28;20057;-68
2021/05/19 05:07:07;;;;;;;4.82;3.05;;;;;;;;;;5014183;28;20050;-68
2021/05/19 05:09:33;;;;;;;4.45;2.72;;;;;;;;;;5015335;28;20084;-68
2021/05/19 05:12:00;;;;;;;5.38;3.53;;;;;;;;;;5033464;28;20049;-68
2021/05/19 05:14:27;;;;;;;2.88;2.35;;;;;;;;;;5033368;28;20053;-68
2021/05/19 05:16:53;;;;;;;3.75;2.55;;;;;;;;;;5033899;28;20050;-68
2021/05/19 05:19:20;;;;;;;4.35;2.47;;;;;;;;;;5017036;28;20045;-68
2021/05/19 05:21:46;;;;;;;5.25;2.55;;;;;;;;;;5034263;28;20060;-68
2021/05/19 05:24:13;;;;;;;3.10;2.38;;;;;;;;;;5034574;28;20077;-68
2021/05/19 05:26:40;;;;;;;3.60;2.40;;;;;;;;;;5034603;28;20045;-68
2021/05/19 05:29:07;;;;;;;4.38;2.20;;;;;;;;;;5034441;28;20511;-69
2021/05/19 05:31:33;;;;;;;3.90;2.22;;;;;;;;;;5034385;28;20052;-69
2021/05/19 05:34:00;;;;;;;3.53;2.63;;;;;;;;;;5034034;28;20054;-69
2021/05/19 05:36:26;;;;;;;3.63;2.20;;;;;;;;;;5033673;28;20056;-69
2021/05/19 05:38:53;;;;;;;2.28;2.10;;;;;;;;;;5034004;28;20050;-69
2021/05/19 05:41:19;;;;;;;5.25;2.50;;;;;;;;;;5034362;28;20420;-69
2021/05/19 05:43:46;;;;;;;6.05;3.25;;;;;;;;;;5033931;28;20052;-70
2021/05/19 05:46:13;;;;;;;3.13;2.83;;;;;;;;;;5033864;28;20049;-69
2021/05/19 05:48:40;;;;;;;2.40;2.20;;;;;;;;;;5032581;28;20041;-69
2021/05/19 05:51:09;;;;;;;2.85;2.20;;;;;;;;;;4992109;28;20083;-69
2021/05/19 05:53:36;;;;;;;2.20;1.98;;;;;;;;;;4992669;28;20104;-70
2021/05/19 05:56:03;;;;;;;2.55;2.05;;;;;;;;;;4991187;28;20058;-70
2021/05/19 05:58:29;;;;;;;2.83;2.28;;;;;;;;;;4997454;28;20046;-69
2021/05/19 06:00:56;;;;;;;2.63;2.42;;;;;;;;;;5029855;28;20432;-70
2021/05/19 06:03:22;;;;;;;4.70;3.10;;;;;;;;;;4999331;28;20103;-71
2021/05/19 06:05:49;;;;;;;2.20;2.00;;;;;;;;;;4994344;28;20081;-70
2021/05/19 06:08:16;;;;;;;3.85;2.00;;;;;;;;;;5016934;28;20462;-71
2021/05/19 06:10:42;;;;;;;5.10;2.38;;;;;;;;;;5031353;28;20053;-71
2021/05/19 06:13:09;;;;;;;3.53;2.10;;;;;;;;;;5030906;28;20428;-70
2021/05/19 06:15:36;;;;;;;3.35;2.13;;;;;;;;;;5011994;28;20080;-70
2021/05/19 06:18:03;;;;;;;2.72;2.20;;;;;;;;;;5013921;28;20059;-70
2021/05/19 06:20:30;;;;;;;3.53;2.58;;;;;;;;;;5022823;28;20054;-70
2021/05/19 06:22:56;;;;;;;2.97;2.60;;;;;;;;;;5010424;28;20508;-71
2021/05/19 06:25:23;;;;;;;2.88;2.30;;;;;;;;;;5011164;28;20421;-71
2021/05/19 06:27:50;;;;;;;5.35;2.70;;;;;;;;;;5010333;28;20161;-71
2021/05/19 06:30:17;;;;;;;3.80;2.33;;;;;;;;;;5010473;28;20046;-70
2021/05/19 06:32:43;;;;;;;7.18;4.85;;;;;;;;;;5009459;28;20050;-70
2021/05/19 06:35:10;;;;;;;9.57;5.15;;;;;;;;;;5011047;28;20436;-70
2021/05/19 06:37:37;;;;;;;4.72;3.33;;;;;;;;;;5010315;28;20064;-70
2021/05/19 06:40:05;;;;;;;3.25;2.88;;;;;;;;;;5011436;28;20137;-71
2021/05/19 06:42:32;;;;;;;4.40;3.00;;;;;;;;;;5009331;28;20046;-70
2021/05/19 06:44:58;;;;;;;5.03;2.80;;;;;;;;;;5011226;28;20132;-71
2021/05/19 06:47:25;;;;;;;3.83;2.60;;;;;;;;;;5009557;28;20060;-70
2021/05/19 06:49:52;;;;;;;3.67;2.50;;;;;;;;;;5019918;28;20034;-70
2021/05/19 06:52:20;;;;;;;2.40;2.20;;;;;;;;;;5016126;28;20085;-70
2021/05/19 06:54:47;;;;;;;2.47;2.22;;;;;;;;;;5009055;28;20049;-70
2021/05/19 06:57:17;;;;;;;3.10;2.67;;;;;;;;;;4993772;28;20062;-70
2021/05/19 06:59:43;;;;;;;4.32;3.35;;;;;;;;;;5012480;28;20041;-70
2021/05/19 07:02:10;;;;;;;3.17;2.80;;;;;;;;;;5009339;28;20108;-71
2021/05/19 07:04:38;;;;;;;4.22;2.85;;;;;;;;;;5008859;28;20092;-72
2021/05/19 07:07:05;;;;;;;3.00;2.70;;;;;;;;;;5007612;28;20425;-70
2021/05/19 07:09:32;;;;;;;2.95;2.40;;;;;;;;;;5010510;28;20050;-71
2021/05/19 07:11:59;;;;;;;2.50;2.30;;;;;;;;;;5008609;28;20133;-69
2021/05/19 07:14:27;;;;;;;2.40;2.20;;;;;;;;;;5008911;28;20068;-68
2021/05/19 07:16:54;;;;;;;2.65;2.40;;;;;;;;;;5008390;28;20073;-69
2021/05/19 07:19:22;;;;;;;5.10;2.42;;;;;;;;;;5009301;28;20046;-69
2021/05/19 07:21:50;;;;;;;3.03;2.38;;;;;;;;;;5008180;28;20053;-69
2021/05/19 07:24:17;;;;;;;3.80;2.08;;;;;;;;;;5007901;28;20511;-69
2021/05/19 07:26:46;;;;;;;4.20;2.63;;;;;;;;;;5023462;28;20050;-69
2021/05/19 07:29:13;;;;;;;3.33;2.60;;;;;;;;;;5007157;28;20046;-69
2021/05/19 07:31:41;;;;;;;2.38;2.08;;;;;;;;;;5008492;28;20061;-71
2021/05/19 07:34:08;;;;;;;2.70;2.50;;;;;;;;;;5007496;28;20058;-70
2021/05/19 07:36:34;;;;;;;3.75;2.33;;;;;;;;;;5007578;28;20072;-69
2021/05/19 07:39:03;;;;;;;2.63;2.20;;;;;;;;;;4984512;28;20530;-69
2021/05/19 07:41:29;;;;;;;3.25;2.42;;;;;;;;;;4998938;28;20057;-69
2021/05/19 07:43:56;;;;;;;3.33;2.20;;;;;;;;;;5007747;28;20050;-69
2021/05/19 07:46:22;;;;;;;5.28;2.15;;;;;;;;;;5009321;28;20061;-69
2021/05/19 07:48:48;;;;;;;2.85;2.20;;;;;;;;;;5007274;28;20054;-69
2021/05/19 07:51:15;;;;;;;2.72;2.05;;;;;;;;;;5009052;28;20042;-69
2021/05/19 07:53:42;;;;;;;4.88;2.35;;;;;;;;;;5008192;28;20040;-69
2021/05/19 07:58:36;;;;;;;4.03;2.10;;;;;;;;;;5022940;28;20125;-69
2021/05/19 08:03:31;;;;;;;3.65;2.22;;;;;;;;;;5008324;28;20044;-70
2021/05/19 08:06:00;;;;;;;4.03;2.35;;;;;;;;;;5008989;28;20471;-68
2021/05/19 08:08:25;;;;;;;5.32;2.38;;;;;;;;;;5025331;28;20030;-69
2021/05/19 08:10:51;;;;;;;2.28;2.00;;;;;;;;;;5008453;28;20032;-69
2021/05/19 08:13:17;;;;;;;3.00;2.33;;;;;;;;;;4986818;28;20455;-69
2021/05/19 08:15:42;;;;;;;2.78;1.67;;;;;;;;;;5010441;28;20038;-71
2021/05/19 08:18:09;;;;;;;4.13;1.73;;;;;;;;;;5009846;28;20045;-69
2021/05/19 08:20:36;;;;;;;3.58;1.90;;;;;;;;;;5025108;28;20046;-70
2021/05/19 08:23:03;;;;;;;3.88;1.80;;;;;;;;;;4992597;28;20046;-69
2021/05/19 08:25:30;;;;;;;8.43;2.40;;;;;;;;;;5009966;28;20053;-70
2021/05/19 08:27:57;;;;;;;2.75;2.45;;;;;;;;;;5008472;28;20050;-69
2021/05/19 08:30:24;;;;;;;2.88;2.05;;;;;;;;;;5009239;28;20512;-69
2021/05/19 08:32:52;;;;;;;3.92;2.10;;;;;;;;;;4993306;28;20041;-69
2021/05/19 08:35:19;;;;;;;3.25;2.13;;;;;;;;;;5014466;28;20049;-71
2021/05/19 08:37:45;;;;;;;6.57;2.45;;;;;;;;;;5012651;28;20505;-73
2021/05/19 08:40:12;;;;;;;5.13;2.20;;;;;;;;;;5012225;23;20050;-69
2021/05/19 08:42:39;;;;;;;3.47;1.95;;;;;;;;;;5024616;28;20053;-69
2021/05/19 08:45:08;;;;;;;3.05;2.20;;;;;;;;;;5024789;28;20060;-69
2021/05/19 08:47:35;;;;;;;3.17;1.90;;;;;;;;;;5020240;28;20045;-69
2021/05/19 08:50:03;;;;;;;5.35;3.28;;;;;;;;;;5024408;28;20053;-68
2021/05/19 08:52:30;;;;;;;2.42;1.67;;;;;;;;;;5033546;28;20045;-68
2021/05/19 08:54:57;;;;;;;3.75;2.30;;;;;;;;;;5033232;28;20511;-67
2021/05/19 08:57:23;;;;;;;3.33;2.03;;;;;;;;;;5033061;28;20049;-70
2021/05/19 08:59:50;;;;;;;4.75;2.10;;;;;;;;;;5026399;28;20046;-72
2021/05/19 09:02:17;;;;;;;5.60;2.50;;;;;;;;;;5032518;28;20444;-70
2021/05/19 09:04:45;;;;;;;4.93;2.47;;;;;;;;;;5032332;28;20474;-72
2021/05/19 09:07:19;;;;;;;3.22;2.42;;;;;;;;;;5032185;28;20046;-72
2021/05/19 09:09:45;;;;;;;9.68;3.00;;;;;;;;;;5028909;28;20550;-71
2021/05/19 09:12:14;;;;;;;5.03;2.70;;;;;;;;;;5031101;28;20500;-72
2021/05/19 09:15:00;;;;;;;3.67;2.30;;;;;;;;;;5014402;28;20049;-71
2021/05/19 09:17:29;;;;;;;3.58;2.17;;;;;;;;;;5013837;28;20054;-72
2021/05/19 09:20:04;;;;;;;2.85;2.25;;;;;;;;;;5013962;28;20491;-74
2021/05/19 09:22:33;;;;;;;3.65;2.53;;;;;;;;;;5013034;28;20050;-73
2021/05/19 09:25:04;;;;;;;2.28;1.90;;;;;;;;;;5018849;28;20084;-75
2021/05/19 09:27:41;;;;;;;3.58;2.08;;;;;;;;;;5029815;28;20056;-74
2021/05/19 09:30:09;;;;;;;3.35;1.55;;;;;;;;;;5046685;28;20144;-75
2021/05/19 09:32:38;;;;;;;2.75;1.13;;;;;;;;;;5027103;28;20411;-76
2021/05/19 09:35:09;;;;;;;2.55;1.40;;;;;;;;;;5029042;28;20064;-76
2021/05/19 09:37:36;;;;;;;3.67;1.40;;;;;;;;;;5030812;28;20068;-77
2021/05/19 09:40:08;;;;;;;3.05;1.40;;;;;;;;;;5047180;28;20057;-74
2021/05/19 09:42:35;;;;;;;5.80;1.30;;;;;;;;;;5026213;28;20057;-74
2021/05/19 09:45:16;;;;;;;2.13;1.40;;;;;;;;;;5031576;28;20057;-74
2021/05/19 09:47:43;;;;;;;2.35;1.50;;;;;;;;;;5029640;28;20049;-75
2021/05/19 09:50:12;;;;;;;4.20;1.35;;;;;;;;;;5029964;28;20072;-74
2021/05/19 09:52:39;;;;;;;2.28;1.10;;;;;;;;;;5046274;28;20053;-78
2021/05/19 09:55:14;;;;;;;2.15;1.00;;;;;;;;;;5032244;28;20518;-79
2021/05/19 09:57:51;;;;;;;1.63;1.13;;;;;;;;;;5013921;28;20394;-77
2021/05/19 10:00:23;;;;;;;1.73;1.05;;;;;;;;;;5031504;28;20496;-72
2021/05/19 10:02:51;;;;;;;3.72;1.50;;;;;;;;;;5031793;28;20049;-70
2021/05/19 10:05:32;;;;;;;3.13;1.50;;;;;;;;;;5030692;28;20050;-70
2021/05/19 10:07:59;;;;;;;2.17;0.70;;;;;;;;;;5022782;28;20137;-70
2021/05/19 10:10:26;;;;;;;2.25;0.80;;;;;;;;;;5032083;28;20050;-70
2021/05/19 10:12:53;;;;;;;1.02;0.52;;;;;;;;;;5028488;28;20045;-69
2021/05/19 10:15:28;;;;;;;2.90;1.55;;;;;;;;;;5025756;28;20048;-70
2021/05/19 10:18:07;;;;;;;2.25;0.90;;;;;;;;;;5045459;28;20393;-69
2021/05/19 10:20:39;;;;;;;3.00;1.00;;;;;;;;;;5043348;28;20053;-71
2021/05/19 10:23:08;;;;;;;1.27;0.90;;;;;;;;;;5023041;28;20096;-70
2021/05/19 10:25:38;;;;;;;1.00;0.80;;;;;;;;;;5029197;28;20053;-70
2021/05/19 10:28:06;;;;;;;2.45;1.08;;;;;;;;;;5031576;28;20132;-71
2021/05/19 10:30:36;;;;;;;0.90;0.70;;;;;;;;;;5029986;28;20044;-70
2021/05/19 10:33:04;;;;;;;4.88;0.85;;;;;;;;;;5031083;28;20492;-72
2021/05/19 10:35:35;;;;;;;1.95;0.73;;;;;;;;;;5030587;28;20045;-70
2021/05/19 10:38:36;;;;;;;2.35;0.90;;;;;;;;;;5029973;28;20428;-71
2021/05/19 10:41:04;;;;;;;0.82;0.70;;;;;;;;;;5012861;28;20470;-71
2021/05/19 10:43:50;;;;;;;1.10;0.60;;;;;;;;;;5032047;28;20111;-68
2021/05/19 10:49:48;;;;;;;1.08;0.45;;;;;;;;;;5027475;28;20472;-69
2021/05/19 10:57:58;;;;;;;1.02;0.65;;;;;;;;;;5025784;28;20056;-72
2021/05/19 11:00:25;;;;;;;3.10;0.80;;;;;;;;;;5028891;28;20488;-69
2021/05/19 11:02:52;;;;;;;2.25;0.70;;;;;;;;;;5044178;28;20053;-70
2021/05/19 11:05:20;;;;;;;1.92;0.77;;;;;;;;;;5028077;28;20500;-70
2021/05/19 11:08:11;;;;;;;2.38;0.63;;;;;;;;;;5025654;28;20124;-70
2021/05/19 11:10:47;;;;;;;1.77;0.95;;;;;;;;;;5021704;28;20054;-70
2021/05/19 11:13:15;;;;;;;4.25;0.70;;;;;;;;;;5026633;28;20393;-70
2021/05/19 11:15:52;;;;;;;1.95;0.80;;;;;;;;;;5025891;28;20052;-70
2021/05/19 11:21:17;;;;;;;6.85;0.77;;;;;;;;;;5027880;28;20049;-69
2021/05/19 11:24:09;;;;;;;1.02;0.70;;;;;;;;;;5029524;28;20045;-70
2021/05/19 11:26:42;;;;;;;1.13;0.63;;;;;;;;;;5028984;28;20080;-70
2021/05/19 11:29:11;;;;;;;1.48;0.63;;;;;;;;;;5029507;28;20500;-70
2021/05/19 11:31:44;;;;;;;1.25;0.60;;;;;;;;;;5029636;28;20049;-72
2021/05/19 11:34:11;;;;;;;;;;;;;;;;;;5030096;28;20049;-70
2021/05/19 11:36:43;;;;;;;1.60;0.77;;;;;;;;;;5019874;28;19925;-71
2021/05/19 11:39:57;;;;;;;1.25;0.40;;;;;;;;;;5035483;28;20057;-78
2021/05/19 11:42:28;;;;;;;4.38;0.75;;;;;;;;;;5024280;28;20053;-71
2021/05/19 11:44:59;;;;;;;1.85;0.50;;;;;;;;;;5027295;28;20559;-72
2021/05/19 11:47:28;;;;;;;1.13;0.40;;;;;;;;;;5028077;28;20492;-73
2021/05/19 11:50:05;;;;;;;1.92;0.82;;;;;;;;;;5029030;28;20041;-71
2021/05/19 11:52:47;;;;;;;2.90;0.60;;;;;;;;;;5026328;28;20547;-73
2021/05/19 11:55:23;;;;;;;3.00;0.73;;;;;;;;;;5042822;28;20400;-72
2021/05/19 11:57:50;;;;;;;1.48;0.70;;;;;;;;;;5028396;28;20053;-77
2021/05/19 12:00:27;;;;;;;1.25;0.70;;;;;;;;;;5027215;28;20049;-75
2021/05/19 12:02:54;;;;;;;2.83;1.13;;;;;;;;;;5042732;28;20115;-72
2021/05/19 12:05:21;;;;;;;5.78;0.65;;;;;;;;;;5043895;28;20545;-73
2021/05/19 12:07:48;;;;;;;2.88;0.65;;;;;;;;;;5028275;28;20428;-71
2021/05/19 12:10:15;;;;;;;1.48;0.60;;;;;;;;;;5028899;28;20053;-70
2021/05/19 12:12:42;;;;;;;1.23;0.50;;;;;;;;;;5029209;28;20050;-71
2021/05/19 12:15:10;;;;;;;1.10;0.60;;;;;;;;;;5029245;28;20099;-70
2021/05/19 12:17:41;;;;;;;2.05;0.65;;;;;;;;;;5046484;28;20057;-70
2021/05/19 12:20:21;;;;;;;0.80;0.45;;;;;;;;;;5024236;28;20060;-70
2021/05/19 12:22:48;;;;;;;4.63;0.70;;;;;;;;;;5034466;28;20563;-69
2021/05/19 12:25:14;;;;;;;1.75;0.77;;;;;;;;;;5020991;28;20104;-70
2021/05/19 12:27:41;;;;;;;1.88;0.68;;;;;;;;;;4996765;28;20554;-71
2021/05/19 12:30:08;;;;;;;2.47;1.00;;;;;;;;;;4996777;28;20049;-72
2021/05/19 12:32:36;;;;;;;1.58;0.70;;;;;;;;;;5014076;28;20197;-72
2021/05/19 12:35:12;;;;;;;1.40;0.40;;;;;;;;;;5027377;28;20057;-72
2021/05/19 12:37:49;;;;;;;0.70;0.55;;;;;;;;;;5018721;28;20064;-71
2021/05/19 12:40:19;;;;;;;1.75;0.50;;;;;;;;;;5013339;28;20049;-72
2021/05/19 12:42:52;;;;;;;1.75;0.60;;;;;;;;;;5013882;28;20053;-72
2021/05/19 12:45:25;;;;;;;;;;;;;;;;;;5028046;28;20075;-72
2021/05/19 12:48:07;;;;;;;0.77;0.50;;;;;;;;;;5033612;28;20394;-72
2021/05/19 12:50:36;;;;;;;2.55;0.90;;;;;;;;;;5033642;28;20454;-72
2021/05/19 12:53:03;;;;;;;2.60;0.90;;;;;;;;;;5033526;28;20496;-71
2021/05/19 12:55:30;;;;;;;1.40;0.50;;;;;;;;;;5034552;28;20440;-72
2021/05/19 12:58:09;;;;;;;1.13;0.50;;;;;;;;;;5034660;28;20104;-72
2021/05/19 13:00:53;;;;;;;1.98;0.63;;;;;;;;;;5034508;28;20095;-72
2021/05/19 13:03:36;;;;;;;4.50;0.60;;;;;;;;;;5034613;28;20054;-72
2021/05/19 13:06:04;;;;;;;1.63;0.50;;;;;;;;;;5049210;28;20057;-72
2021/05/19 13:08:31;;;;;;;2.67;0.60;;;;;;;;;;5034304;28;20091;-72
2021/05/19 13:10:59;;;;;;;1.98;0.60;;;;;;;;;;5032887;28;20073;-72
2021/05/19 13:13:39;;;;;;;1.95;0.50;;;;;;;;;;5033355;28;20076;-71
2021/05/19 13:16:09;;;;;;;1.88;0.50;;;;;;;;;;5030932;28;20054;-72
2021/05/19 13:21:10;;;;;;;1.15;0.68;;;;;;;;;;5012287;28;20082;-73
2021/05/19 13:23:40;;;;;;;0.98;0.40;;;;;;;;;;5014184;28;20065;-71
2021/05/19 13:26:07;;;;;;;1.85;0.60;;;;;;;;;;5013632;28;20107;-75
2021/05/19 13:28:42;;;;;;;1.73;0.70;;;;;;;;;;4997156;28;20086;-75
2021/05/19 13:31:11;;;;;;;4.68;0.95;;;;;;;;;;5013959;28;20361;-75
2021/05/19 13:38:59;;;;;;;1.65;0.60;;;;;;;;;;5032679;28;20053;-71
2021/05/19 13:41:26;;;;;;;1.35;0.57;;;;;;;;;;5033121;28;20558;-70
2021/05/19 13:43:53;;;;;;;1.20;0.98;;;;;;;;;;5032938;28;20049;-77
2021/05/19 13:46:20;;;;;;;2.15;0.75;;;;;;;;;;5027643;28;20054;-74
2021/05/19 13:48:47;;;;;;;2.55;0.63;;;;;;;;;;5024369;28;20412;-72
2021/05/19 13:51:13;;;;;;;0.75;0.57;;;;;;;;;;5019889;28;20041;-72
2021/05/19 13:53:40;;;;;;;1.23;0.60;;;;;;;;;;5012968;28;20054;-72
2021/05/19 13:56:07;;;;;;;1.20;0.70;;;;;;;;;;5012244;28;20092;-71
2021/05/19 13:58:35;;;;;;;2.28;0.75;;;;;;;;;;5013192;28;20046;-72
2021/05/19 14:01:07;;;;;;;2.33;0.50;;;;;;;;;;5032213;28;20504;-72
2021/05/19 14:03:34;;;;;;;1.65;0.60;;;;;;;;;;5047818;28;20051;-73
2021/05/19 14:06:00;;;;;;;2.22;0.75;;;;;;;;;;5030990;28;20396;-72
2021/05/19 14:08:28;;;;;;;0.77;0.47;;;;;;;;;;5031358;28;20056;-72
2021/05/19 14:13:40;;;;;;;2.45;0.50;;;;;;;;;;5025749;28;20578;-73
2021/05/19 14:19:00;;;;;;;1.48;0.80;;;;;;;;;;5026161;28;20085;-73
2021/05/19 14:29:46;;;;;;;4.03;0.95;;;;;;;;;;5012608;28;20152;-68
2021/05/19 14:32:13;;;;;;;3.03;0.82;;;;;;;;;;5028486;28;20084;-71
2021/05/19 14:34:40;;;;;;;3.55;1.00;;;;;;;;;;5032223;28;20562;-73
2021/05/19 15:01:24;;;;;;;2.05;1.00;;;;;;;;;;5031679;28;20558;-72
2021/05/19 15:03:52;;;;;;;3.25;0.75;;;;;;;;;;5031626;28;20049;-74
2021/05/19 15:06:19;;;;;;;0.65;0.50;;;;;;;;;;5031602;28;20076;-74
2021/05/19 15:08:46;;;;;;;2.03;0.70;;;;;;;;;;5029945;28;20053;-73
2021/05/19 15:11:12;;;;;;;3.40;0.80;;;;;;;;;;5031564;28;20448;-74
2021/05/19 15:13:39;;;;;;;1.58;0.60;;;;;;;;;;5047041;28;20076;-76
2021/05/19 15:16:06;;;;;;;0.82;0.50;;;;;;;;;;5013848;28;20062;-73
2021/05/19 15:18:33;;;;;;;2.05;0.70;;;;;;;;;;5029184;28;20049;-74
2021/05/19 15:21:00;;;;;;;1.42;0.50;;;;;;;;;;5031167;28;20045;-74
2021/05/19 15:23:26;;;;;;;1.48;0.50;;;;;;;;;;5030864;28;20504;-70
2021/05/19 15:25:53;;;;;;;1.85;0.40;;;;;;;;;;5017436;28;20104;-75
2021/05/19 15:28:20;;;;;;;2.10;0.50;;;;;;;;;;5027654;28;20085;-74
2021/05/19 15:30:47;;;;;;;2.58;0.40;;;;;;;;;;5030980;28;20099;-73
2021/05/19 15:33:14;;;;;;;1.30;0.60;;;;;;;;;;5031505;28;20111;-73
2021/05/19 15:35:40;;;;;;;4.53;0.50;;;;;;;;;;5030739;28;20053;-72
2021/05/19 15:38:08;;;;;;;0.70;0.40;;;;;;;;;;5046319;28;20156;-73
2021/05/19 15:40:35;;;;;;;1.50;0.60;;;;;;;;;;5031038;28;20115;-72
2021/05/19 15:43:05;;;;;;;1.58;0.57;;;;;;;;;;5031255;28;20633;-68
2021/05/19 15:45:32;;;;;;;1.63;0.40;;;;;;;;;;5030811;28;20049;-69
2021/05/19 15:48:02;;;;;;;0.73;0.52;;;;;;;;;;5030650;28;20052;-70
2021/05/19 15:50:30;;;;;;;1.25;0.55;;;;;;;;;;5023357;28;20045;-72
2021/05/19 15:52:59;;;;;;;1.58;0.30;;;;;;;;;;5040766;28;20050;-71
2021/05/19 15:55:26;;;;;;;1.65;0.50;;;;;;;;;;5011299;28;20056;-72
2021/05/19 15:57:52;;;;;;;0.88;0.55;;;;;;;;;;5020979;28;20049;-74